OOCL Nagoya — VRFX8 — position and weather

sailwx.info

Track history (hours):
 
Tides and Currents Weather Stations Pressure Air Temp Water Temp Dewpoint Dewpoint Depression Visibility Wind Speed Wind Dir Waves Ship Positions

OOCL Nagoya

Last reported at 2015-Aug-30 01:32 UTC. Time now 2015-Aug-30 01:38 UTC.
Position N 01°16' E 103°51'.

Length 261 m; draft 9.7 m.

Type: Cargo ship. MMSI: 477627900.

Date/timePositionNaut miles runAvg speedWind from/ knotsBaromVisibWave heightAir tempDewpointWater temp
2015-Aug-30 01:32N 01°16' E 103°51'0 0.0
2015-Aug-30 00:32N 01°16' E 103°51'0 0.0
2015-Aug-29 23:32N 01°16' E 103°51'0 0.0
2015-Aug-29 22:32N 01°16' E 103°51'0 0.0
2015-Aug-29 21:29N 01°16' E 103°51'0 0.0
2015-Aug-29 20:23N 01°16' E 103°51'0 0.0
2015-Aug-29 19:29N 01°16' E 103°51'0 0.0
2015-Aug-29 18:32N 01°16' E 103°51'0 0.0
2015-Aug-29 17:29N 01°16' E 103°51'0 0.0
2015-Aug-29 16:29N 01°16' E 103°51'0 0.0
2015-Aug-29 15:32N 01°16' E 103°51'1 1.0
2015-Aug-29 14:33N 01°15' E 103°52'6 6.3
2015-Aug-29 13:33N 01°15' E 103°58'  
2015-Aug-26 06:00N 20°12' E 113°12'13116.8 180 / 61005.010.8 35.027.028.0
2015-Aug-25 22:09N 22°06' E 114°22'913.5
2015-Aug-25 21:31N 22°09' E 114°13'1313.7
2015-Aug-25 20:33N 22°20' E 114°05'13 1.2
2015-Aug-25 09:32N 22°27' E 113°54'4 4.1
2015-Aug-25 08:33N 22°23' E 113°54'1110.0
2015-Aug-25 07:28N 22°20' E 114°05'2 2.4
2015-Aug-25 06:33N 22°21' E 114°07'0 0.0
2015-Aug-25 05:31N 22°21' E 114°07'0 0.1
2015-Aug-25 04:31N 22°21' E 114°07'0 0.0
2015-Aug-25 02:31N 22°21' E 114°07'0 0.0
2015-Aug-25 00:28N 22°21' E 114°07'0 0.0
2015-Aug-24 23:31N 22°21' E 114°07'0 0.0
2015-Aug-24 22:22N 22°21' E 114°07'0 0.0
2015-Aug-24 21:31N 22°21' E 114°07'0 0.0
2015-Aug-24 20:31N 22°21' E 114°07'2 1.9
2015-Aug-24 19:34N 22°19' E 114°06'1211.0
2015-Aug-24 18:30N 22°09' E 114°13'1312.9
2015-Aug-24 17:30N 22°09' E 114°27'  
2015-Aug-20 09:33N 33°60' E 134°57'1717.5
2015-Aug-20 08:34N 34°17' E 134°58'2020.0
2015-Aug-20 07:34N 34°33' E 135°12'6 6.3
2015-Aug-20 06:33N 34°39' E 135°14'0 0.0
2015-Aug-20 05:33N 34°39' E 135°14'0 0.0
2015-Aug-20 04:33N 34°39' E 135°14'0 0.0
2015-Aug-20 03:33N 34°39' E 135°14'0 0.0
2015-Aug-20 02:33N 34°39' E 135°14'0 0.0
2015-Aug-20 01:33N 34°39' E 135°14'  
Track history (hours):
 
Tides and Currents Weather Stations Pressure Air Temp Water Temp Dewpoint Dewpoint Depression Visibility Wind Speed Wind Dir Waves Ship Positions

OOCL Nagoya

Last reported at 2015-Aug-30 01:32 UTC. Time now 2015-Aug-30 01:38 UTC.
Position N 01°16' E 103°51'.

Length 261 m; draft 9.7 m.

Type: Cargo ship. MMSI: 477627900.

Date/timePositionNaut miles runAvg speedWind from/ knotsBaromVisibWave heightAir tempDewpointWater temp
2015-Aug-30 01:32N 01°16' E 103°51'0 0.0
2015-Aug-30 00:32N 01°16' E 103°51'0 0.0
2015-Aug-29 23:32N 01°16' E 103°51'0 0.0
2015-Aug-29 22:32N 01°16' E 103°51'0 0.0
2015-Aug-29 21:29N 01°16' E 103°51'0 0.0
2015-Aug-29 20:23N 01°16' E 103°51'0 0.0
2015-Aug-29 19:29N 01°16' E 103°51'0 0.0
2015-Aug-29 18:32N 01°16' E 103°51'0 0.0
2015-Aug-29 17:29N 01°16' E 103°51'0 0.0
2015-Aug-29 16:29N 01°16' E 103°51'0 0.0
2015-Aug-29 15:32N 01°16' E 103°51'1 1.0
2015-Aug-29 14:33N 01°15' E 103°52'6 6.3
2015-Aug-29 13:33N 01°15' E 103°58'  
2015-Aug-26 06:00N 20°12' E 113°12'13116.8 180 / 61005.010.8 35.027.028.0
2015-Aug-25 22:09N 22°06' E 114°22'913.5
2015-Aug-25 21:31N 22°09' E 114°13'1313.7
2015-Aug-25 20:33N 22°20' E 114°05'13 1.2
2015-Aug-25 09:32N 22°27' E 113°54'4 4.1
2015-Aug-25 08:33N 22°23' E 113°54'1110.0
2015-Aug-25 07:28N 22°20' E 114°05'2 2.4
2015-Aug-25 06:33N 22°21' E 114°07'0 0.0
2015-Aug-25 05:31N 22°21' E 114°07'0 0.1
2015-Aug-25 04:31N 22°21' E 114°07'0 0.0
2015-Aug-25 02:31N 22°21' E 114°07'0 0.0
2015-Aug-25 00:28N 22°21' E 114°07'0 0.0
2015-Aug-24 23:31N 22°21' E 114°07'0 0.0
2015-Aug-24 22:22N 22°21' E 114°07'0 0.0
2015-Aug-24 21:31N 22°21' E 114°07'0 0.0
2015-Aug-24 20:31N 22°21' E 114°07'2 1.9
2015-Aug-24 19:34N 22°19' E 114°06'1211.0
2015-Aug-24 18:30N 22°09' E 114°13'1312.9
2015-Aug-24 17:30N 22°09' E 114°27'  
2015-Aug-20 09:33N 33°60' E 134°57'1717.5
2015-Aug-20 08:34N 34°17' E 134°58'2020.0
2015-Aug-20 07:34N 34°33' E 135°12'6 6.3
2015-Aug-20 06:33N 34°39' E 135°14'0 0.0
2015-Aug-20 05:33N 34°39' E 135°14'0 0.0
2015-Aug-20 04:33N 34°39' E 135°14'0 0.0
2015-Aug-20 03:33N 34°39' E 135°14'0 0.0
2015-Aug-20 02:33N 34°39' E 135°14'0 0.0
2015-Aug-20 01:33N 34°39' E 135°14'  

Dump ship's entire track history